Weather at A W Ranch Airport [CLOSED]

Public forecast

Using degrees Fahrenheit for public forecast. Weather courtesy of forecast.io.

Closest aviation weather report (METAR) to A W Ranch Airport

Closest report is Stinson Municipal Airport, 5.2 nm (9.7 km) N.

2024/07/25 17:53 (retrieved 49 minutes ago)

KSSF 251753Z VRB04KT 10SM BKN041 31/21 A3007 RMK AO2 SLP168 T03110211 10328 20239 58006

Closest aviation forecast (TAF) to A W Ranch Airport

Closest forecast is Stinson Municipal Airport, 5.2 nm (9.7 km) N.

2024/07/25 18:28 (retrieved 14 minutes ago)

TAF KSSF 251726Z 2518/2618 03007KT P6SM VCSH BKN035 BKN250 FM260000 08005KT P6SM FEW050 SCT250 FM260600 VRB04KT P6SM BKN015 OVC030 FM261600 06006KT P6SM BKN025 BKN035